Ashburn Park, Illinois
Current Conditions -  °F | °C
As of 9:53 AM on Saturday 20 Dec 2014 (Local Time) from KMDW Reporting Station
Overcast Overcast  
Wind Chill: 27°   Ceiling: 7000
Heat Index: 33°   Visibility: 10mi
Dew Point: 26°   Wind: 7mph
Humidity: 75%   Direction: 200°SSW
Pressure: 30.29"   Gusts: NA
Location:  41.7473°N, 87.7132°W
Report Text: KMDW 201553Z 20006KT 10SM FEW048 OVC070 01/M03 A3029 RMK AO2 SLP269 T00061033 $
Loading
Personal Weather Stations






























Interactive Weather Map New forecast layout! Learn more

10-Day Weather Forecast

Advertisements
Track Severe Weather on mobile